sensor_id;sensor_type;location;lat;lon;timestamp;P1;durP1;ratioP1;P2;durP2;ratioP2
20792;SDS011;10556;-33.662;151.094;2023-04-06T00:00:13;4.13;;;0.60;;
20792;SDS011;10556;-33.662;151.094;2023-04-06T00:05:14;1.30;;;0.70;;
20792;SDS011;10556;-33.662;151.094;2023-04-06T00:10:17;0.93;;;0.50;;
20792;SDS011;10556;-33.662;151.094;2023-04-06T00:15:19;1.43;;;0.50;;
20792;SDS011;10556;-33.662;151.094;2023-04-06T00:20:20;2.80;;;0.60;;
20792;SDS011;10556;-33.662;151.094;2023-04-06T00:25:23;1.77;;;0.87;;
20792;SDS011;10556;-33.662;151.094;2023-04-06T00:30:24;1.20;;;0.70;;
20792;SDS011;10556;-33.662;151.094;2023-04-06T00:35:25;2.07;;;0.60;;
20792;SDS011;10556;-33.662;151.094;2023-04-06T00:40:28;1.87;;;0.77;;
20792;SDS011;10556;-33.662;151.094;2023-04-06T00:45:30;2.70;;;1.23;;
20792;SDS011;10556;-33.662;151.094;2023-04-06T00:50:31;4.00;;;1.53;;
20792;SDS011;10556;-33.662;151.094;2023-04-06T00:55:34;2.67;;;1.70;;
20792;SDS011;10556;-33.662;151.094;2023-04-06T01:00:35;3.23;;;1.10;;
20792;SDS011;10556;-33.662;151.094;2023-04-06T01:05:37;2.43;;;1.00;;
20792;SDS011;10556;-33.662;151.094;2023-04-06T01:10:40;2.63;;;1.10;;
20792;SDS011;10556;-33.662;151.094;2023-04-06T01:15:41;2.83;;;1.00;;
20792;SDS011;10556;-33.662;151.094;2023-04-06T01:20:42;1.83;;;0.60;;
20792;SDS011;10556;-33.662;151.094;2023-04-06T01:25:46;1.10;;;0.50;;
20792;SDS011;10556;-33.662;151.094;2023-04-06T01:30:47;0.70;;;0.60;;
20792;SDS011;10556;-33.662;151.094;2023-04-06T01:35:48;1.63;;;0.50;;
20792;SDS011;10556;-33.662;151.094;2023-04-06T01:40:51;3.30;;;0.60;;
20792;SDS011;10556;-33.662;151.094;2023-04-06T01:45:52;0.83;;;0.60;;
20792;SDS011;10556;-33.662;151.094;2023-04-06T01:50:54;1.27;;;0.50;;
20792;SDS011;10556;-33.662;151.094;2023-04-06T01:55:57;0.50;;;0.30;;
20792;SDS011;10556;-33.662;151.094;2023-04-06T02:00:58;0.57;;;0.30;;
20792;SDS011;10556;-33.662;151.094;2023-04-06T02:05:59;0.50;;;0.37;;
20792;SDS011;10556;-33.662;151.094;2023-04-06T02:11:02;0.20;;;0.20;;
20792;SDS011;10556;-33.662;151.094;2023-04-06T02:16:04;1.73;;;0.40;;
20792;SDS011;10556;-33.662;151.094;2023-04-06T02:21:05;0.83;;;0.30;;
20792;SDS011;10556;-33.662;151.094;2023-04-06T02:26:08;1.37;;;0.30;;
20792;SDS011;10556;-33.662;151.094;2023-04-06T02:31:09;0.90;;;0.30;;
20792;SDS011;10556;-33.662;151.094;2023-04-06T02:36:11;0.47;;;0.30;;
20792;SDS011;10556;-33.662;151.094;2023-04-06T02:41:14;0.87;;;0.30;;
20792;SDS011;10556;-33.662;151.094;2023-04-06T02:46:15;0.70;;;0.30;;
20792;SDS011;10556;-33.662;151.094;2023-04-06T02:51:16;2.27;;;0.30;;
20792;SDS011;10556;-33.662;151.094;2023-04-06T02:56:19;1.23;;;0.40;;
20792;SDS011;10556;-33.662;151.094;2023-04-06T03:01:21;0.20;;;0.20;;
20792;SDS011;10556;-33.662;151.094;2023-04-06T03:06:22;0.47;;;0.27;;
20792;SDS011;10556;-33.662;151.094;2023-04-06T03:11:25;0.93;;;0.27;;
20792;SDS011;10556;-33.662;151.094;2023-04-06T03:16:26;0.53;;;0.30;;
20792;SDS011;10556;-33.662;151.094;2023-04-06T03:21:28;0.93;;;0.30;;
20792;SDS011;10556;-33.662;151.094;2023-04-06T03:26:31;0.30;;;0.20;;
20792;SDS011;10556;-33.662;151.094;2023-04-06T03:31:32;0.20;;;0.20;;
20792;SDS011;10556;-33.662;151.094;2023-04-06T03:36:34;0.57;;;0.30;;
20792;SDS011;10556;-33.662;151.094;2023-04-06T03:41:37;1.53;;;0.20;;
20792;SDS011;10556;-33.662;151.094;2023-04-06T03:46:38;0.20;;;0.20;;
20792;SDS011;10556;-33.662;151.094;2023-04-06T03:51:40;0.50;;;0.37;;
20792;SDS011;10556;-33.662;151.094;2023-04-06T03:56:43;0.30;;;0.20;;
20792;SDS011;10556;-33.662;151.094;2023-04-06T04:01:44;0.10;;;0.10;;
20792;SDS011;10556;-33.662;151.094;2023-04-06T04:06:46;1.30;;;0.40;;
20792;SDS011;10556;-33.662;151.094;2023-04-06T04:11:49;0.20;;;0.20;;
20792;SDS011;10556;-33.662;151.094;2023-04-06T04:16:50;1.20;;;0.30;;
20792;SDS011;10556;-33.662;151.094;2023-04-06T04:21:52;0.73;;;0.40;;
20792;SDS011;10556;-33.662;151.094;2023-04-06T04:26:55;0.37;;;0.30;;
20792;SDS011;10556;-33.662;151.094;2023-04-06T04:31:57;1.50;;;0.30;;
20792;SDS011;10556;-33.662;151.094;2023-04-06T04:36:58;0.37;;;0.20;;
20792;SDS011;10556;-33.662;151.094;2023-04-06T04:42:01;0.57;;;0.30;;
20792;SDS011;10556;-33.662;151.094;2023-04-06T04:47:03;0.40;;;0.20;;
20792;SDS011;10556;-33.662;151.094;2023-04-06T04:52:04;0.63;;;0.40;;
20792;SDS011;10556;-33.662;151.094;2023-04-06T04:57:07;2.17;;;0.20;;
20792;SDS011;10556;-33.662;151.094;2023-04-06T05:02:09;1.27;;;0.20;;
20792;SDS011;10556;-33.662;151.094;2023-04-06T05:07:10;0.60;;;0.30;;
20792;SDS011;10556;-33.662;151.094;2023-04-06T05:12:13;0.70;;;0.43;;
20792;SDS011;10556;-33.662;151.094;2023-04-06T05:17:15;3.10;;;0.40;;
20792;SDS011;10556;-33.662;151.094;2023-04-06T05:22:16;3.03;;;0.50;;
20792;SDS011;10556;-33.662;151.094;2023-04-06T05:27:19;1.73;;;0.20;;
20792;SDS011;10556;-33.662;151.094;2023-04-06T05:32:21;2.17;;;0.20;;
20792;SDS011;10556;-33.662;151.094;2023-04-06T05:37:22;0.97;;;0.37;;
20792;SDS011;10556;-33.662;151.094;2023-04-06T05:42:25;0.57;;;0.30;;
20792;SDS011;10556;-33.662;151.094;2023-04-06T05:47:27;1.00;;;0.30;;
20792;SDS011;10556;-33.662;151.094;2023-04-06T05:52:28;1.37;;;0.37;;
20792;SDS011;10556;-33.662;151.094;2023-04-06T05:57:31;2.03;;;0.23;;
20792;SDS011;10556;-33.662;151.094;2023-04-06T06:02:33;1.10;;;0.30;;
20792;SDS011;10556;-33.662;151.094;2023-04-06T06:07:34;0.43;;;0.20;;
20792;SDS011;10556;-33.662;151.094;2023-04-06T06:12:37;0.73;;;0.20;;
20792;SDS011;10556;-33.662;151.094;2023-04-06T06:17:39;0.43;;;0.13;;
20792;SDS011;10556;-33.662;151.094;2023-04-06T06:22:40;0.67;;;0.20;;
20792;SDS011;10556;-33.662;151.094;2023-04-06T06:27:43;0.30;;;0.20;;
20792;SDS011;10556;-33.662;151.094;2023-04-06T06:32:45;0.70;;;0.20;;
20792;SDS011;10556;-33.662;151.094;2023-04-06T06:37:46;0.33;;;0.17;;
20792;SDS011;10556;-33.662;151.094;2023-04-06T06:42:49;1.30;;;0.10;;
20792;SDS011;10556;-33.662;151.094;2023-04-06T06:47:51;0.87;;;0.20;;
20792;SDS011;10556;-33.662;151.094;2023-04-06T06:52:52;0.43;;;0.17;;
20792;SDS011;10556;-33.662;151.094;2023-04-06T06:57:55;0.10;;;0.10;;
20792;SDS011;10556;-33.662;151.094;2023-04-06T07:02:57;0.43;;;0.20;;
20792;SDS011;10556;-33.662;151.094;2023-04-06T07:07:58;1.07;;;0.20;;
20792;SDS011;10556;-33.662;151.094;2023-04-06T07:13:02;0.40;;;0.30;;
20792;SDS011;10556;-33.662;151.094;2023-04-06T07:18:03;0.93;;;0.20;;
20792;SDS011;10556;-33.662;151.094;2023-04-06T07:23:04;0.80;;;0.30;;
20792;SDS011;10556;-33.662;151.094;2023-04-06T07:28:08;0.30;;;0.13;;
20792;SDS011;10556;-33.662;151.094;2023-04-06T07:33:09;1.97;;;0.40;;
20792;SDS011;10556;-33.662;151.094;2023-04-06T07:38:10;0.27;;;0.20;;
20792;SDS011;10556;-33.662;151.094;2023-04-06T07:43:14;0.13;;;0.10;;
20792;SDS011;10556;-33.662;151.094;2023-04-06T07:48:15;0.43;;;0.17;;
20792;SDS011;10556;-33.662;151.094;2023-04-06T07:53:16;0.97;;;0.20;;
20792;SDS011;10556;-33.662;151.094;2023-04-06T07:58:20;0.47;;;0.30;;
20792;SDS011;10556;-33.662;151.094;2023-04-06T08:03:21;0.40;;;0.27;;
20792;SDS011;10556;-33.662;151.094;2023-04-06T08:08:22;1.20;;;0.40;;
20792;SDS011;10556;-33.662;151.094;2023-04-06T08:13:26;1.60;;;0.77;;
20792;SDS011;10556;-33.662;151.094;2023-04-06T08:18:28;0.70;;;0.40;;
20792;SDS011;10556;-33.662;151.094;2023-04-06T08:23:30;0.90;;;0.40;;
20792;SDS011;10556;-33.662;151.094;2023-04-06T08:28:33;0.90;;;0.40;;
20792;SDS011;10556;-33.662;151.094;2023-04-06T08:33:34;0.87;;;0.50;;
20792;SDS011;10556;-33.662;151.094;2023-04-06T08:38:36;1.37;;;0.37;;
20792;SDS011;10556;-33.662;151.094;2023-04-06T08:43:41;1.13;;;0.43;;
20792;SDS011;10556;-33.662;151.094;2023-04-06T08:48:43;1.03;;;0.50;;
20792;SDS011;10556;-33.662;151.094;2023-04-06T08:53:45;0.90;;;0.50;;
20792;SDS011;10556;-33.662;151.094;2023-04-06T08:58:48;1.57;;;0.70;;
20792;SDS011;10556;-33.662;151.094;2023-04-06T09:03:50;1.53;;;0.50;;
20792;SDS011;10556;-33.662;151.094;2023-04-06T09:08:52;2.70;;;0.60;;
20792;SDS011;10556;-33.662;151.094;2023-04-06T09:13:55;1.97;;;0.60;;
20792;SDS011;10556;-33.662;151.094;2023-04-06T09:19:03;1.40;;;0.60;;
20792;SDS011;10556;-33.662;151.094;2023-04-06T09:24:06;2.77;;;0.97;;
20792;SDS011;10556;-33.662;151.094;2023-04-06T09:29:09;1.57;;;0.80;;
20792;SDS011;10556;-33.662;151.094;2023-04-06T09:34:19;2.83;;;0.90;;
20792;SDS011;10556;-33.662;151.094;2023-04-06T09:39:21;2.73;;;0.70;;
20792;SDS011;10556;-33.662;151.094;2023-04-06T09:44:24;1.10;;;0.43;;
20792;SDS011;10556;-33.662;151.094;2023-04-06T09:49:26;1.83;;;0.50;;
20792;SDS011;10556;-33.662;151.094;2023-04-06T09:54:28;1.70;;;0.73;;
20792;SDS011;10556;-33.662;151.094;2023-04-06T09:59:35;1.80;;;0.70;;
20792;SDS011;10556;-33.662;151.094;2023-04-06T10:04:39;1.70;;;1.20;;
20792;SDS011;10556;-33.662;151.094;2023-04-06T10:09:43;1.33;;;0.80;;
20792;SDS011;10556;-33.662;151.094;2023-04-06T10:14:48;1.37;;;0.77;;
20792;SDS011;10556;-33.662;151.094;2023-04-06T10:19:50;3.47;;;0.90;;
20792;SDS011;10556;-33.662;151.094;2023-04-06T10:24:54;0.87;;;0.50;;
20792;SDS011;10556;-33.662;151.094;2023-04-06T10:30:00;2.03;;;0.40;;
20792;SDS011;10556;-33.662;151.094;2023-04-06T10:35:05;1.20;;;0.37;;
20792;SDS011;10556;-33.662;151.094;2023-04-06T10:40:07;2.33;;;0.50;;
20792;SDS011;10556;-33.662;151.094;2023-04-06T10:45:24;1.37;;;0.40;;
20792;SDS011;10556;-33.662;151.094;2023-04-06T10:50:25;5.67;;;1.17;;
20792;SDS011;10556;-33.662;151.094;2023-04-06T10:55:28;2.03;;;0.50;;
20792;SDS011;10556;-33.662;151.094;2023-04-06T11:00:32;1.90;;;0.50;;
20792;SDS011;10556;-33.662;151.094;2023-04-06T11:05:33;2.63;;;0.90;;
20792;SDS011;10556;-33.662;151.094;2023-04-06T11:10:35;4.03;;;0.90;;
20792;SDS011;10556;-33.662;151.094;2023-04-06T11:15:38;5.63;;;0.90;;
20792;SDS011;10556;-33.662;151.094;2023-04-06T11:20:39;3.37;;;0.83;;
20792;SDS011;10556;-33.662;151.094;2023-04-06T11:25:49;2.87;;;0.87;;
20792;SDS011;10556;-33.662;151.094;2023-04-06T11:30:53;3.03;;;0.60;;
20792;SDS011;10556;-33.662;151.094;2023-04-06T11:35:57;1.83;;;0.80;;
20792;SDS011;10556;-33.662;151.094;2023-04-06T11:40:58;3.17;;;0.70;;
20792;SDS011;10556;-33.662;151.094;2023-04-06T11:46:02;3.67;;;0.87;;
20792;SDS011;10556;-33.662;151.094;2023-04-06T11:51:03;4.93;;;1.67;;
20792;SDS011;10556;-33.662;151.094;2023-04-06T11:56:04;5.63;;;1.03;;
20792;SDS011;10556;-33.662;151.094;2023-04-06T12:01:07;2.90;;;1.10;;
20792;SDS011;10556;-33.662;151.094;2023-04-06T12:06:09;2.40;;;0.77;;
20792;SDS011;10556;-33.662;151.094;2023-04-06T12:11:10;5.93;;;0.70;;
20792;SDS011;10556;-33.662;151.094;2023-04-06T12:16:13;1.93;;;0.97;;
20792;SDS011;10556;-33.662;151.094;2023-04-06T12:21:14;6.20;;;1.10;;
20792;SDS011;10556;-33.662;151.094;2023-04-06T12:26:15;4.70;;;0.70;;
20792;SDS011;10556;-33.662;151.094;2023-04-06T12:31:19;4.63;;;1.00;;
20792;SDS011;10556;-33.662;151.094;2023-04-06T12:36:20;2.73;;;0.90;;
20792;SDS011;10556;-33.662;151.094;2023-04-06T12:41:22;2.53;;;0.80;;
20792;SDS011;10556;-33.662;151.094;2023-04-06T12:46:25;2.97;;;0.80;;
20792;SDS011;10556;-33.662;151.094;2023-04-06T12:51:27;2.10;;;0.70;;
20792;SDS011;10556;-33.662;151.094;2023-04-06T12:56:28;2.00;;;0.70;;
20792;SDS011;10556;-33.662;151.094;2023-04-06T13:01:32;1.80;;;0.87;;
20792;SDS011;10556;-33.662;151.094;2023-04-06T13:06:33;1.63;;;0.57;;
20792;SDS011;10556;-33.662;151.094;2023-04-06T13:11:34;1.27;;;0.70;;
20792;SDS011;10556;-33.662;151.094;2023-04-06T13:16:37;1.07;;;0.47;;
20792;SDS011;10556;-33.662;151.094;2023-04-06T13:21:41;1.77;;;0.50;;
20792;SDS011;10556;-33.662;151.094;2023-04-06T13:26:42;1.43;;;0.70;;
20792;SDS011;10556;-33.662;151.094;2023-04-06T13:31:45;1.53;;;0.80;;
20792;SDS011;10556;-33.662;151.094;2023-04-06T13:36:47;2.10;;;0.60;;
20792;SDS011;10556;-33.662;151.094;2023-04-06T13:41:48;1.40;;;0.50;;
20792;SDS011;10556;-33.662;151.094;2023-04-06T13:46:51;2.73;;;0.73;;
20792;SDS011;10556;-33.662;151.094;2023-04-06T13:51:52;2.67;;;0.50;;
20792;SDS011;10556;-33.662;151.094;2023-04-06T13:56:53;2.13;;;0.50;;
20792;SDS011;10556;-33.662;151.094;2023-04-06T14:01:57;0.93;;;0.60;;
20792;SDS011;10556;-33.662;151.094;2023-04-06T14:06:58;2.00;;;0.60;;
20792;SDS011;10556;-33.662;151.094;2023-04-06T14:11:59;1.93;;;0.40;;
20792;SDS011;10556;-33.662;151.094;2023-04-06T14:17:02;1.80;;;0.30;;
20792;SDS011;10556;-33.662;151.094;2023-04-06T14:22:03;0.70;;;0.33;;
20792;SDS011;10556;-33.662;151.094;2023-04-06T14:27:05;1.90;;;0.50;;
20792;SDS011;10556;-33.662;151.094;2023-04-06T14:32:08;0.70;;;0.27;;
20792;SDS011;10556;-33.662;151.094;2023-04-06T14:37:09;3.60;;;0.40;;
20792;SDS011;10556;-33.662;151.094;2023-04-06T14:42:10;0.70;;;0.40;;
20792;SDS011;10556;-33.662;151.094;2023-04-06T14:47:13;1.40;;;0.40;;
20792;SDS011;10556;-33.662;151.094;2023-04-06T14:52:15;2.20;;;0.50;;
20792;SDS011;10556;-33.662;151.094;2023-04-06T14:57:16;1.57;;;0.47;;
20792;SDS011;10556;-33.662;151.094;2023-04-06T15:02:19;1.33;;;0.30;;
20792;SDS011;10556;-33.662;151.094;2023-04-06T15:07:20;2.03;;;0.30;;
20792;SDS011;10556;-33.662;151.094;2023-04-06T15:12:22;2.50;;;0.40;;
20792;SDS011;10556;-33.662;151.094;2023-04-06T15:17:25;2.30;;;0.40;;
20792;SDS011;10556;-33.662;151.094;2023-04-06T15:22:26;3.77;;;0.40;;
20792;SDS011;10556;-33.662;151.094;2023-04-06T15:27:27;1.83;;;0.40;;
20792;SDS011;10556;-33.662;151.094;2023-04-06T15:32:30;0.73;;;0.23;;
20792;SDS011;10556;-33.662;151.094;2023-04-06T15:37:31;0.97;;;0.23;;
20792;SDS011;10556;-33.662;151.094;2023-04-06T15:42:33;3.33;;;0.33;;
20792;SDS011;10556;-33.662;151.094;2023-04-06T15:47:36;2.00;;;0.40;;
20792;SDS011;10556;-33.662;151.094;2023-04-06T15:52:37;1.17;;;0.40;;
20792;SDS011;10556;-33.662;151.094;2023-04-06T15:57:39;2.13;;;0.40;;
20792;SDS011;10556;-33.662;151.094;2023-04-06T16:02:42;2.33;;;0.33;;
20792;SDS011;10556;-33.662;151.094;2023-04-06T16:07:43;0.50;;;0.30;;
20792;SDS011;10556;-33.662;151.094;2023-04-06T16:12:44;0.73;;;0.37;;
20792;SDS011;10556;-33.662;151.094;2023-04-06T16:17:47;0.73;;;0.30;;
20792;SDS011;10556;-33.662;151.094;2023-04-06T16:22:49;1.13;;;0.40;;
20792;SDS011;10556;-33.662;151.094;2023-04-06T16:27:50;5.27;;;0.40;;
20792;SDS011;10556;-33.662;151.094;2023-04-06T16:32:53;0.87;;;0.40;;
20792;SDS011;10556;-33.662;151.094;2023-04-06T16:37:54;0.47;;;0.27;;
20792;SDS011;10556;-33.662;151.094;2023-04-06T16:42:56;1.17;;;0.37;;
20792;SDS011;10556;-33.662;151.094;2023-04-06T16:47:59;1.90;;;0.30;;
20792;SDS011;10556;-33.662;151.094;2023-04-06T16:53:00;0.50;;;0.40;;
20792;SDS011;10556;-33.662;151.094;2023-04-06T16:58:01;0.73;;;0.30;;
20792;SDS011;10556;-33.662;151.094;2023-04-06T17:03:04;0.77;;;0.40;;
20792;SDS011;10556;-33.662;151.094;2023-04-06T17:08:05;0.93;;;0.30;;
20792;SDS011;10556;-33.662;151.094;2023-04-06T17:13:07;2.00;;;0.30;;
20792;SDS011;10556;-33.662;151.094;2023-04-06T17:18:10;0.60;;;0.40;;
20792;SDS011;10556;-33.662;151.094;2023-04-06T17:23:11;1.37;;;0.40;;
20792;SDS011;10556;-33.662;151.094;2023-04-06T17:28:12;1.37;;;0.40;;
20792;SDS011;10556;-33.662;151.094;2023-04-06T17:33:15;0.30;;;0.20;;
20792;SDS011;10556;-33.662;151.094;2023-04-06T17:38:16;0.27;;;0.20;;
20792;SDS011;10556;-33.662;151.094;2023-04-06T17:43:18;1.73;;;0.50;;
20792;SDS011;10556;-33.662;151.094;2023-04-06T17:48:21;1.20;;;0.17;;
20792;SDS011;10556;-33.662;151.094;2023-04-06T17:53:22;2.33;;;0.40;;
20792;SDS011;10556;-33.662;151.094;2023-04-06T17:58:24;1.47;;;0.40;;
20792;SDS011;10556;-33.662;151.094;2023-04-06T18:03:27;0.30;;;0.20;;
20792;SDS011;10556;-33.662;151.094;2023-04-06T18:08:28;0.67;;;0.40;;
20792;SDS011;10556;-33.662;151.094;2023-04-06T18:13:29;0.53;;;0.30;;
20792;SDS011;10556;-33.662;151.094;2023-04-06T18:18:33;1.53;;;0.30;;
20792;SDS011;10556;-33.662;151.094;2023-04-06T18:23:34;1.07;;;0.53;;
20792;SDS011;10556;-33.662;151.094;2023-04-06T18:28:35;0.30;;;0.20;;
20792;SDS011;10556;-33.662;151.094;2023-04-06T18:33:38;0.70;;;0.20;;
20792;SDS011;10556;-33.662;151.094;2023-04-06T18:38:40;0.27;;;0.17;;
20792;SDS011;10556;-33.662;151.094;2023-04-06T18:43:41;1.30;;;0.40;;
20792;SDS011;10556;-33.662;151.094;2023-04-06T18:48:45;1.23;;;0.27;;
20792;SDS011;10556;-33.662;151.094;2023-04-06T18:53:46;0.77;;;0.30;;
20792;SDS011;10556;-33.662;151.094;2023-04-06T18:58:47;0.30;;;0.20;;
20792;SDS011;10556;-33.662;151.094;2023-04-06T19:03:50;1.33;;;0.30;;
20792;SDS011;10556;-33.662;151.094;2023-04-06T19:08:52;1.43;;;0.10;;
20792;SDS011;10556;-33.662;151.094;2023-04-06T19:13:53;1.63;;;0.20;;
20792;SDS011;10556;-33.662;151.094;2023-04-06T19:18:56;0.57;;;0.37;;
20792;SDS011;10556;-33.662;151.094;2023-04-06T19:23:57;0.50;;;0.43;;
20792;SDS011;10556;-33.662;151.094;2023-04-06T19:28:59;0.60;;;0.30;;
20792;SDS011;10556;-33.662;151.094;2023-04-06T19:34:02;1.97;;;0.30;;
20792;SDS011;10556;-33.662;151.094;2023-04-06T19:39:03;1.70;;;0.30;;
20792;SDS011;10556;-33.662;151.094;2023-04-06T19:44:04;1.17;;;0.33;;
20792;SDS011;10556;-33.662;151.094;2023-04-06T19:49:07;0.30;;;0.30;;
20792;SDS011;10556;-33.662;151.094;2023-04-06T19:54:08;1.57;;;0.30;;
20792;SDS011;10556;-33.662;151.094;2023-04-06T19:59:10;2.30;;;0.30;;
20792;SDS011;10556;-33.662;151.094;2023-04-06T20:04:13;0.57;;;0.30;;
20792;SDS011;10556;-33.662;151.094;2023-04-06T20:09:14;1.17;;;0.30;;
20792;SDS011;10556;-33.662;151.094;2023-04-06T20:14:15;1.10;;;0.67;;
20792;SDS011;10556;-33.662;151.094;2023-04-06T20:19:18;1.67;;;0.60;;
20792;SDS011;10556;-33.662;151.094;2023-04-06T20:24:20;1.30;;;0.50;;
20792;SDS011;10556;-33.662;151.094;2023-04-06T20:29:21;0.70;;;0.30;;
20792;SDS011;10556;-33.662;151.094;2023-04-06T20:34:24;1.33;;;0.30;;
20792;SDS011;10556;-33.662;151.094;2023-04-06T20:39:25;0.40;;;0.20;;
20792;SDS011;10556;-33.662;151.094;2023-04-06T20:44:26;2.73;;;0.50;;
20792;SDS011;10556;-33.662;151.094;2023-04-06T20:49:30;3.50;;;0.47;;
20792;SDS011;10556;-33.662;151.094;2023-04-06T20:54:31;0.47;;;0.40;;
20792;SDS011;10556;-33.662;151.094;2023-04-06T20:59:32;2.00;;;0.40;;
20792;SDS011;10556;-33.662;151.094;2023-04-06T21:04:35;2.10;;;0.43;;
20792;SDS011;10556;-33.662;151.094;2023-04-06T21:09:37;1.07;;;0.40;;
20792;SDS011;10556;-33.662;151.094;2023-04-06T21:14:39;1.07;;;0.30;;
20792;SDS011;10556;-33.662;151.094;2023-04-06T21:19:42;0.20;;;0.20;;
20792;SDS011;10556;-33.662;151.094;2023-04-06T21:24:43;0.20;;;0.20;;
20792;SDS011;10556;-33.662;151.094;2023-04-06T21:29:44;1.57;;;0.30;;
20792;SDS011;10556;-33.662;151.094;2023-04-06T21:34:47;3.13;;;0.60;;
20792;SDS011;10556;-33.662;151.094;2023-04-06T21:39:48;2.83;;;0.47;;
20792;SDS011;10556;-33.662;151.094;2023-04-06T21:44:50;2.27;;;0.40;;
20792;SDS011;10556;-33.662;151.094;2023-04-06T21:49:53;2.30;;;0.30;;
20792;SDS011;10556;-33.662;151.094;2023-04-06T21:54:54;1.33;;;0.30;;
20792;SDS011;10556;-33.662;151.094;2023-04-06T21:59:55;3.40;;;0.43;;
20792;SDS011;10556;-33.662;151.094;2023-04-06T22:04:58;0.87;;;0.40;;
20792;SDS011;10556;-33.662;151.094;2023-04-06T22:10:00;0.80;;;0.30;;
20792;SDS011;10556;-33.662;151.094;2023-04-06T22:15:01;1.90;;;0.50;;
20792;SDS011;10556;-33.662;151.094;2023-04-06T22:20:04;0.60;;;0.30;;
20792;SDS011;10556;-33.662;151.094;2023-04-06T22:25:06;1.40;;;0.30;;
20792;SDS011;10556;-33.662;151.094;2023-04-06T22:30:08;0.87;;;0.23;;
20792;SDS011;10556;-33.662;151.094;2023-04-06T22:35:11;0.23;;;0.23;;
20792;SDS011;10556;-33.662;151.094;2023-04-06T22:40:12;0.70;;;0.40;;
20792;SDS011;10556;-33.662;151.094;2023-04-06T22:45:13;0.30;;;0.23;;
20792;SDS011;10556;-33.662;151.094;2023-04-06T22:50:16;0.23;;;0.20;;
20792;SDS011;10556;-33.662;151.094;2023-04-06T22:55:18;1.20;;;0.23;;
20792;SDS011;10556;-33.662;151.094;2023-04-06T23:00:19;0.33;;;0.30;;
20792;SDS011;10556;-33.662;151.094;2023-04-06T23:05:22;0.53;;;0.20;;
20792;SDS011;10556;-33.662;151.094;2023-04-06T23:10:23;1.30;;;0.40;;
20792;SDS011;10556;-33.662;151.094;2023-04-06T23:15:25;1.03;;;0.20;;
20792;SDS011;10556;-33.662;151.094;2023-04-06T23:20:28;0.27;;;0.20;;
20792;SDS011;10556;-33.662;151.094;2023-04-06T23:25:29;0.77;;;0.47;;
20792;SDS011;10556;-33.662;151.094;2023-04-06T23:30:30;1.57;;;0.93;;
20792;SDS011;10556;-33.662;151.094;2023-04-06T23:35:34;0.47;;;0.30;;
20792;SDS011;10556;-33.662;151.094;2023-04-06T23:40:36;1.20;;;0.60;;
20792;SDS011;10556;-33.662;151.094;2023-04-06T23:45:38;1.00;;;0.57;;
20792;SDS011;10556;-33.662;151.094;2023-04-06T23:50:41;1.03;;;0.60;;
20792;SDS011;10556;-33.662;151.094;2023-04-06T23:55:43;0.67;;;0.60;;
